Time;durP1;ratioP1;P1;durP2;ratioP2;P2;SDS_P1;SDS_P2;PMS_P1;PMS_P2;Temp;Humidity;BMP_temperature;BMP_pressure;BME280_temperature;BME280_humidity;BME280_pressure;Samples;Min_cycle;Max_cycle;Signal;HPM_P1;HPM_P2
2021/08/02 00:00:19;;;;;;;21.87;18.85;;;;;;;23.45;65.53;100070.95;1729085;83;21390;-59
2021/08/02 00:03:33;;;;;;;21.23;18.80;;;;;;;23.44;65.66;100065.06;1690776;83;21359;-59
2021/08/02 00:06:57;;;;;;;24.40;18.57;;;;;;;23.40;65.83;100056.36;1729151;83;21209;-59
2021/08/02 00:10:58;;;;;;;28.10;19.92;;;;;;;23.37;66.18;100060.27;1706475;81;21329;-58
2021/08/02 00:14:04;;;;;;;26.50;20.35;;;;;;;23.34;66.32;100072.80;1720731;83;21237;-58
2021/08/02 00:17:12;;;;;;;24.32;19.65;;;;;;;23.31;66.44;100071.94;1720908;83;21264;-58
2021/08/02 00:20:26;;;;;;;23.75;19.87;;;;;;;23.24;66.64;100068.51;1720883;83;21225;-58
2021/08/02 00:23:32;;;;;;;22.27;19.77;;;;;;;23.21;66.79;100075.17;1721315;83;21256;-59
2021/08/02 00:26:38;;;;;;;23.25;19.98;;;;;;;23.17;66.94;100076.80;1721144;83;21193;-59
2021/08/02 00:29:46;;;;;;;23.35;20.85;;;;;;;23.17;66.95;100069.81;1721173;83;21189;-59
2021/08/02 00:32:52;;;;;;;23.83;21.35;;;;;;;23.15;67.09;100075.66;1721382;83;21256;-59
2021/08/02 00:36:30;;;;;;;28.17;21.95;;;;;;;23.14;67.21;100075.94;1721283;83;21283;-59
2021/08/02 00:39:55;;;;;;;29.80;23.00;;;;;;;23.14;67.21;100071.74;1721387;83;21269;-58
2021/08/02 00:43:24;;;;;;;24.63;21.30;;;;;;;23.13;67.29;100075.11;1713028;83;21186;-59
2021/08/02 00:46:34;;;;;;;26.07;22.55;;;;;;;23.14;67.54;100078.72;1721617;83;21233;-59
2021/08/02 00:49:42;;;;;;;29.50;23.10;;;;;;;23.14;67.60;100089.36;1721516;83;21222;-59
2021/08/02 00:53:00;;;;;;;25.30;22.65;;;;;;;23.15;67.68;100097.19;1705832;83;21264;-59
2021/08/02 00:56:11;;;;;;;25.70;23.00;;;;;;;23.14;67.68;100098.28;1721514;83;21228;-59
2021/08/02 00:59:16;;;;;;;30.23;22.27;;;;;;;23.14;67.51;100101.92;1721274;83;21782;-59
2021/08/02 01:02:22;;;;;;;27.25;22.77;;;;;;;23.12;67.72;100104.13;1703250;83;21729;-59
2021/08/02 01:05:30;;;;;;;27.50;22.87;;;;;;;23.11;67.70;100097.41;1721196;83;21330;-59
2021/08/02 01:08:40;;;;;;;25.23;22.48;;;;;;;23.08;67.94;100098.80;1734616;82;21261;-59
2021/08/02 01:11:47;;;;;;;31.65;22.15;;;;;;;23.04;67.97;100099.59;1733488;82;21363;-59
2021/08/02 01:14:54;;;;;;;27.22;21.05;;;;;;;23.01;68.16;100091.71;1734414;83;21181;-59
2021/08/02 01:18:02;;;;;;;25.00;21.68;;;;;;;22.97;68.25;100089.17;1718607;83;21202;-59
2021/08/02 01:21:15;;;;;;;26.85;21.45;;;;;;;22.94;68.38;100089.70;1665610;86;21823;-59
2021/08/02 01:24:21;;;;;;;25.50;22.77;;;;;;;22.89;68.50;100077.08;1716792;83;21221;-59
2021/08/02 01:27:52;;;;;;;25.25;22.62;;;;;;;22.84;68.74;100083.46;1721196;83;21208;-59
2021/08/02 01:31:05;;;;;;;24.98;22.13;;;;;;;22.81;68.93;100077.02;1706093;83;21221;-59
2021/08/02 01:34:13;;;;;;;28.30;22.45;;;;;;;22.77;69.13;100079.20;1710008;83;21187;-59
2021/08/02 01:37:20;;;;;;;26.33;23.47;;;;;;;22.72;69.34;100077.17;1735207;82;21209;-59
2021/08/02 01:40:28;;;;;;;29.40;22.80;;;;;;;22.70;69.60;100079.41;1734525;82;21235;-59
2021/08/02 01:43:36;;;;;;;29.48;24.18;;;;;;;22.69;69.88;100075.48;1734753;83;21237;-59
2021/08/02 01:46:58;;;;;;;29.07;23.18;;;;;;;22.67;70.05;100080.47;1734605;83;21418;-59
2021/08/02 01:50:32;;;;;;;25.65;22.80;;;;;;;22.64;70.31;100079.59;1734617;83;21374;-59
2021/08/02 01:54:18;;;;;;;25.55;22.07;;;;;;;22.58;70.44;100074.50;1734430;82;21197;-58
2021/08/02 01:57:53;;;;;;;24.43;21.93;;;;;;;22.56;70.59;100091.22;1712266;82;21177;-59
2021/08/02 02:01:01;;;;;;;25.20;21.68;;;;;;;22.53;70.38;100092.60;1738181;82;21382;-59
2021/08/02 02:04:06;;;;;;;26.15;22.02;;;;;;;22.49;70.25;100091.92;1739339;82;21265;-59
2021/08/02 02:07:15;;;;;;;25.55;21.73;;;;;;;22.42;70.23;100093.52;1739352;82;21702;-59
2021/08/02 02:10:26;;;;;;;28.52;22.62;;;;;;;22.41;70.23;100095.17;1739447;82;21355;-59
2021/08/02 02:13:35;;;;;;;24.50;21.90;;;;;;;22.40;70.15;100092.95;1720367;82;21216;-58
2021/08/02 02:16:41;;;;;;;25.90;22.25;;;;;;;22.39;70.20;100098.22;1721550;83;21225;-59
2021/08/02 02:19:49;;;;;;;26.82;22.45;;;;;;;22.38;70.29;100097.09;1721212;83;21257;-58
2021/08/02 02:22:56;;;;;;;27.35;21.60;;;;;;;22.38;70.28;100095.16;1692055;83;21378;-58
2021/08/02 02:26:02;;;;;;;28.45;23.95;;;;;;;22.37;70.22;100095.41;1721333;83;21229;-58
2021/08/02 02:29:11;;;;;;;28.83;24.92;;;;;;;22.34;70.24;100095.39;1721815;82;21244;-58
2021/08/02 02:32:17;;;;;;;29.02;26.00;;;;;;;22.34;70.26;100094.54;1706366;83;21383;-58
2021/08/02 02:35:25;;;;;;;29.77;25.80;;;;;;;22.33;70.31;100095.08;1721529;83;21753;-59
2021/08/02 02:38:30;;;;;;;30.08;26.48;;;;;;;22.35;70.23;100100.41;1721374;83;21205;-59
2021/08/02 02:41:38;;;;;;;30.02;26.62;;;;;;;22.37;70.20;100096.81;1721500;82;21264;-58
2021/08/02 02:44:44;;;;;;;33.58;26.60;;;;;;;22.39;70.18;100098.22;1719776;83;21218;-59
2021/08/02 02:47:53;;;;;;;33.10;26.87;;;;;;;22.41;70.12;100093.78;1692435;84;21267;-58
2021/08/02 02:50:59;;;;;;;31.07;26.87;;;;;;;22.41;70.14;100096.02;1692516;84;21237;-59
2021/08/02 02:54:06;;;;;;;32.05;25.55;;;;;;;22.43;70.12;100091.58;1676394;84;21354;-59
2021/08/02 02:57:14;;;;;;;29.90;26.02;;;;;;;22.43;70.12;100091.58;1692936;84;21399;-59
2021/08/02 03:00:22;;;;;;;33.88;25.25;;;;;;;22.45;70.26;100094.96;1694041;84;21264;-59
2021/08/02 03:03:29;;;;;;;32.10;25.92;;;;;;;22.46;70.33;100100.82;1678638;84;21198;-59
2021/08/02 03:06:36;;;;;;;36.75;26.85;;;;;;;22.47;70.37;100102.53;1676797;85;21281;-59
2021/08/02 03:09:45;;;;;;;35.52;26.52;;;;;;;22.48;70.44;100112.03;1692859;84;21291;-59
2021/08/02 03:12:51;;;;;;;30.00;25.40;;;;;;;22.51;70.30;100109.26;1692531;83;21827;-59
2021/08/02 03:15:57;;;;;;;46.08;26.97;;;;;;;22.56;70.31;100110.75;1700133;84;21410;-58
2021/08/02 03:19:05;;;;;;;32.65;27.35;;;;;;;22.59;70.31;100115.27;1699993;84;21427;-59
2021/08/02 03:22:35;;;;;;;30.30;26.80;;;;;;;22.63;70.22;100110.02;1702672;84;21772;-58
2021/08/02 03:25:54;;;;;;;32.58;27.10;;;;;;;22.68;70.33;100113.70;1699422;84;21719;-57
2021/08/02 03:29:08;;;;;;;30.92;27.58;;;;;;;22.73;70.32;100116.55;1705329;84;21189;-58
2021/08/02 03:32:19;;;;;;;34.27;28.67;;;;;;;22.78;70.34;100111.03;1704934;84;21280;-59
2021/08/02 03:35:24;;;;;;;31.40;27.90;;;;;;;22.80;70.39;100114.95;1700060;83;21375;-58
2021/08/02 03:38:30;;;;;;;33.65;28.12;;;;;;;22.85;70.33;100117.23;1705121;84;21205;-59
2021/08/02 03:41:41;;;;;;;31.87;27.48;;;;;;;22.90;70.37;100115.91;1700410;83;21363;-59
2021/08/02 03:44:46;;;;;;;37.93;27.02;;;;;;;22.94;70.46;100121.81;1699922;84;21358;-59
2021/08/02 03:47:51;;;;;;;29.65;25.82;;;;;;;23.00;70.14;100127.73;1700493;84;21423;-59
2021/08/02 03:50:57;;;;;;;27.25;24.35;;;;;;;23.07;69.85;100122.80;1700397;84;21414;-59
2021/08/02 03:54:02;;;;;;;29.55;24.63;;;;;;;23.13;69.64;100127.33;1700012;84;21363;-60
2021/08/02 03:57:09;;;;;;;31.90;24.27;;;;;;;23.21;69.30;100129.64;1699922;84;21493;-59
2021/08/02 04:00:21;;;;;;;28.47;22.87;;;;;;;23.31;68.91;100132.55;1679795;84;21323;-60
2021/08/02 04:03:27;;;;;;;28.98;21.57;;;;;;;23.38;68.50;100131.25;1679573;84;21552;-59
2021/08/02 04:06:35;;;;;;;28.67;22.77;;;;;;;23.47;68.12;100126.84;1699847;84;21737;-58
2021/08/02 04:09:41;;;;;;;27.45;21.82;;;;;;;23.57;67.98;100126.95;1676008;84;21350;-59
2021/08/02 04:12:47;;;;;;;33.08;21.55;;;;;;;23.67;67.72;100130.38;1704662;84;21276;-59
2021/08/02 04:15:53;;;;;;;26.20;20.57;;;;;;;23.77;67.34;100124.03;1702135;83;21205;-58
2021/08/02 04:19:01;;;;;;;22.42;19.87;;;;;;;23.87;66.98;100124.94;1673284;84;21606;-58
2021/08/02 04:22:07;;;;;;;21.73;19.30;;;;;;;23.98;66.87;100121.13;1705124;84;21248;-58
2021/08/02 04:25:14;;;;;;;20.88;18.37;;;;;;;24.08;66.73;100114.21;1700339;83;21382;-58
2021/08/02 04:28:21;;;;;;;25.25;18.77;;;;;;;24.17;66.61;100104.73;1705106;84;21829;-58
2021/08/02 04:31:31;;;;;;;23.42;19.15;;;;;;;24.28;66.37;100109.27;1700482;84;21225;-58
2021/08/02 04:34:37;;;;;;;26.48;19.10;;;;;;;24.40;66.16;100105.71;1700088;84;21434;-59
2021/08/02 04:37:43;;;;;;;22.17;17.82;;;;;;;24.51;66.18;100112.49;1679076;84;21366;-59
2021/08/02 04:40:50;;;;;;;24.32;18.07;;;;;;;24.64;65.82;100107.77;1707569;82;21868;-59
2021/08/02 04:43:59;;;;;;;23.07;17.65;;;;;;;24.76;65.48;100102.81;1699533;84;21358;-59
2021/08/02 04:47:05;;;;;;;19.60;16.40;;;;;;;24.90;65.25;100098.92;1717468;81;21347;-60
2021/08/02 04:50:11;;;;;;;23.60;15.48;;;;;;;24.99;64.87;100102.86;1719660;83;21370;-59
2021/08/02 04:53:18;;;;;;;18.20;14.33;;;;;;;25.09;64.02;100102.89;1728300;83;21819;-59
2021/08/02 04:56:24;;;;;;;17.32;14.47;;;;;;;25.22;62.99;100104.31;1723197;83;21745;-59
2021/08/02 04:59:33;;;;;;;22.10;14.18;;;;;;;25.32;62.42;100099.58;1699957;84;21185;-59
2021/08/02 05:02:44;;;;;;;23.30;14.85;;;;;;;25.41;62.22;100102.13;1703750;84;21244;-56
2021/08/02 05:05:50;;;;;;;20.68;14.07;;;;;;;25.51;61.85;100097.08;1699955;83;21240;-57
2021/08/02 05:08:58;;;;;;;20.52;13.60;;;;;;;25.59;61.69;100092.31;1699487;84;21220;-57
2021/08/02 05:12:04;;;;;;;22.30;16.00;;;;;;;25.68;61.49;100097.08;1708850;82;21228;-57
2021/08/02 05:15:12;;;;;;;19.35;14.50;;;;;;;25.77;61.34;100090.33;1697213;83;21632;-58
2021/08/02 05:18:17;;;;;;;27.58;15.20;;;;;;;25.87;61.25;100095.94;1676479;84;21272;-57
2021/08/02 05:21:21;;;;;;;22.67;13.83;;;;;;;25.96;61.20;100097.03;1700520;83;21255;-56
2021/08/02 05:24:29;;;;;;;26.90;14.35;;;;;;;26.04;61.31;100085.27;1696663;82;21206;-59
2021/08/02 05:27:34;;;;;;;15.53;12.13;;;;;;;26.13;61.60;100083.00;1702178;82;21240;-57
2021/08/02 05:30:40;;;;;;;20.75;13.28;;;;;;;26.24;62.01;100077.63;1692618;83;21757;-56
2021/08/02 05:33:48;;;;;;;16.23;12.60;;;;;;;26.34;62.01;100076.76;1720646;82;21753;-56
2021/08/02 05:36:55;;;;;;;17.00;12.10;;;;;;;26.46;62.16;100077.29;1698878;83;21237;-57
2021/08/02 05:40:01;;;;;;;19.85;12.28;;;;;;;26.56;61.97;100073.02;1701659;83;21292;-58
2021/08/02 05:43:06;;;;;;;15.48;11.33;;;;;;;26.67;62.44;100074.67;1710627;82;21646;-56
2021/08/02 05:46:13;;;;;;;16.60;10.60;;;;;;;26.80;62.59;100063.40;1720446;83;21248;-57
2021/08/02 05:49:20;;;;;;;14.40;10.45;;;;;;;26.88;62.45;100059.39;1720083;83;21221;-55
2021/08/02 05:52:27;;;;;;;21.10;11.03;;;;;;;26.96;62.42;100054.56;1720715;83;21181;-57
2021/08/02 05:55:35;;;;;;;17.42;11.90;;;;;;;27.04;62.28;100059.58;1721015;83;21344;-58
2021/08/02 05:58:42;;;;;;;17.70;10.08;;;;;;;27.13;62.73;100059.22;1721168;83;21221;-57
2021/08/02 06:01:50;;;;;;;15.65;11.20;;;;;;;27.23;62.68;100059.16;1702903;83;21237;-57
2021/08/02 06:04:56;;;;;;;12.55;9.78;;;;;;;27.34;62.26;100062.20;1720239;83;21769;-57
2021/08/02 06:08:02;;;;;;;13.18;9.20;;;;;;;27.43;61.98;100063.23;1689173;84;21292;-58
2021/08/02 06:11:09;;;;;;;15.72;8.93;;;;;;;27.52;61.79;100064.30;1665366;86;21262;-56
2021/08/02 06:14:15;;;;;;;15.80;10.55;;;;;;;27.58;61.97;100068.74;1664662;84;21251;-56
2021/08/02 06:17:21;;;;;;;13.70;9.25;;;;;;;27.67;62.06;100066.14;1662065;83;21278;-57
2021/08/02 06:20:28;;;;;;;15.50;9.55;;;;;;;27.77;62.04;100067.44;1741521;81;21227;-55
2021/08/02 06:23:33;;;;;;;11.93;9.48;;;;;;;27.88;62.16;100071.86;1735195;82;21156;-55
2021/08/02 06:26:41;;;;;;;12.37;9.95;;;;;;;27.97;61.89;100063.63;1730774;81;21219;-57
2021/08/02 06:29:46;;;;;;;18.37;10.32;;;;;;;28.04;61.38;100064.94;1718766;82;21197;-56
2021/08/02 06:32:52;;;;;;;11.15;9.70;;;;;;;28.09;61.47;100057.00;1724919;82;21190;-56
2021/08/02 06:35:59;;;;;;;13.28;9.93;;;;;;;28.17;61.22;100056.34;1722682;82;21231;-57
2021/08/02 06:39:04;;;;;;;16.10;9.88;;;;;;;28.24;60.91;100062.47;1706538;82;21255;-57
2021/08/02 06:42:14;;;;;;;12.73;9.35;;;;;;;28.29;60.69;100061.02;1718831;82;21240;-56
2021/08/02 06:45:20;;;;;;;14.85;9.50;;;;;;;28.36;60.85;100061.47;1707811;82;21407;-56
2021/08/02 06:48:25;;;;;;;15.38;9.53;;;;;;;28.45;60.48;100061.06;1687627;84;21710;-57
2021/08/02 06:51:31;;;;;;;14.03;8.65;;;;;;;28.51;60.37;100062.14;1679637;84;21772;-57
2021/08/02 06:54:42;;;;;;;12.88;9.23;;;;;;;28.58;60.30;100056.15;1672369;85;21711;-56
2021/08/02 06:57:48;;;;;;;13.10;8.80;;;;;;;28.68;60.35;100051.80;1669952;85;21367;-57
2021/08/02 07:00:56;;;;;;;14.68;8.65;;;;;;;28.78;60.16;100052.48;1676538;84;21257;-60
2021/08/02 07:04:02;;;;;;;13.38;9.85;;;;;;;28.87;60.01;100049.84;1641364;87;21714;-56
2021/08/02 07:07:09;;;;;;;17.65;9.75;;;;;;;28.94;59.90;100044.64;1654594;84;21270;-55
2021/08/02 07:10:18;;;;;;;13.83;8.40;;;;;;;29.04;59.32;100047.31;1656210;84;21744;-59
2021/08/02 07:13:24;;;;;;;11.65;8.18;;;;;;;29.15;58.59;100053.95;1652046;84;21767;-55
2021/08/02 07:16:40;;;;;;;11.18;8.08;;;;;;;29.20;57.38;100040.33;1657189;84;21389;-55
2021/08/02 07:19:48;;;;;;;16.00;8.95;;;;;;;29.26;56.98;100040.51;1632352;86;21225;-56
2021/08/02 07:22:57;;;;;;;12.00;7.90;;;;;;;29.33;57.46;100042.38;1688497;83;21261;-59
2021/08/02 07:26:03;;;;;;;12.10;8.05;;;;;;;29.44;57.24;100041.06;1631805;85;21256;-59
2021/08/02 07:29:09;;;;;;;13.32;8.25;;;;;;;29.55;55.60;100038.33;1645835;85;21217;-60
2021/08/02 07:32:16;;;;;;;13.40;8.58;;;;;;;29.62;55.11;100038.75;1660656;83;21228;-58
2021/08/02 07:35:22;;;;;;;14.53;8.65;;;;;;;29.66;54.60;100031.39;1643013;85;21797;-60
2021/08/02 07:38:27;;;;;;;8.25;7.42;;;;;;;29.70;54.77;100025.38;1641392;85;21207;-59
2021/08/02 07:41:33;;;;;;;12.50;7.90;;;;;;;29.77;54.45;100025.83;1667339;83;21252;-58
2021/08/02 07:44:41;;;;;;;12.82;8.25;;;;;;;29.84;53.77;100030.50;1679368;84;21742;-58
2021/08/02 07:47:48;;;;;;;10.68;8.03;;;;;;;29.89;53.96;100026.15;1662332;83;21750;-59
2021/08/02 07:50:57;;;;;;;10.18;7.72;;;;;;;29.96;54.44;100029.41;1660672;83;21228;-58
2021/08/02 07:54:03;;;;;;;15.90;8.45;;;;;;;30.03;54.30;100029.01;1637239;85;21216;-58
2021/08/02 07:57:11;;;;;;;11.90;7.90;;;;;;;30.23;54.72;100018.17;1630154;86;21889;-59
2021/08/02 08:00:19;;;;;;;15.13;9.28;;;;;;;30.23;54.72;100018.17;1598099;86;21746;-59
2021/08/02 08:03:30;;;;;;;11.97;7.67;;;;;;;30.38;54.01;100023.48;1606132;86;21756;-60
2021/08/02 08:06:38;;;;;;;11.45;8.00;;;;;;;30.55;52.70;100016.64;1626664;86;21812;-59
2021/08/02 08:09:46;;;;;;;14.68;7.70;;;;;;;30.55;52.70;100016.64;1615340;87;21222;-59
2021/08/02 08:12:56;;;;;;;10.78;8.40;;;;;;;30.63;53.08;100017.31;1632290;87;21797;-60
2021/08/02 08:16:04;;;;;;;13.18;8.10;;;;;;;30.83;52.65;100005.31;1623315;88;21788;-61
2021/08/02 08:19:12;;;;;;;14.85;8.58;;;;;;;30.83;52.65;100005.31;1683745;81;21235;-59
2021/08/02 08:22:19;;;;;;;13.90;8.18;;;;;;;30.92;52.44;99993.50;1727230;80;21762;-59
2021/08/02 08:25:26;;;;;;;13.50;8.40;;;;;;;31.02;52.39;99989.84;1690067;84;21236;-60
2021/08/02 08:28:30;;;;;;;15.23;8.58;;;;;;;31.13;52.38;99987.61;1700279;82;21241;-59
2021/08/02 08:31:41;;;;;;;19.57;7.67;;;;;;;31.20;52.23;99986.57;1676098;85;21414;-58
2021/08/02 08:34:49;;;;;;;12.95;7.47;;;;;;;31.28;52.49;99982.97;1676130;85;21226;-59
2021/08/02 08:37:54;;;;;;;9.83;7.17;;;;;;;31.48;51.34;99981.89;1677034;85;21383;-58
2021/08/02 08:41:02;;;;;;;9.85;7.17;;;;;;;31.65;51.13;99979.77;1664248;84;21776;-58
2021/08/02 08:44:07;;;;;;;12.78;7.05;;;;;;;31.77;50.36;99988.48;1626285;87;21213;-57
2021/08/02 08:47:13;;;;;;;12.63;7.15;;;;;;;31.89;49.58;99985.33;1630176;85;21201;-58
2021/08/02 08:50:19;;;;;;;13.25;7.62;;;;;;;31.93;48.38;99977.02;1654383;86;21254;-58
2021/08/02 08:53:27;;;;;;;9.10;6.78;;;;;;;31.95;48.33;99955.69;1640202;87;21298;-58
2021/08/02 08:56:32;;;;;;;12.28;7.22;;;;;;;31.95;48.32;99951.44;1650510;84;21223;-60
2021/08/02 08:59:41;;;;;;;13.05;6.85;;;;;;;31.95;48.43;99957.11;1667479;86;21215;-57
2021/08/02 09:02:46;;;;;;;12.25;7.22;;;;;;;31.99;48.32;99954.46;1652038;86;21235;-59
2021/08/02 09:05:54;;;;;;;12.15;6.95;;;;;;;32.06;47.99;99951.16;1662515;84;21779;-59
2021/08/02 09:09:01;;;;;;;10.98;7.22;;;;;;;32.13;47.19;99945.26;1661654;85;21226;-59
2021/08/02 09:12:17;;;;;;;11.70;7.78;;;;;;;32.22;47.02;99950.96;1668968;85;21732;-59
2021/08/02 09:15:23;;;;;;;10.23;7.37;;;;;;;32.39;46.03;99952.45;1666840;84;21320;-59
2021/08/02 09:18:33;;;;;;;9.60;7.30;;;;;;;32.39;46.03;99952.45;1651974;84;21335;-59
2021/08/02 09:21:54;;;;;;;10.85;7.45;;;;;;;32.36;45.15;99951.09;1650070;82;21254;-61
2021/08/02 09:25:19;;;;;;;14.90;7.03;;;;;;;32.39;44.10;99944.80;1649905;87;21253;-57
2021/08/02 09:28:30;;;;;;;9.60;7.40;;;;;;;32.43;44.86;99947.80;1632432;87;21223;-57
2021/08/02 09:31:45;;;;;;;12.68;6.78;;;;;;;32.43;44.99;99940.72;1682791;83;21248;-57
2021/08/02 09:34:55;;;;;;;13.35;6.60;;;;;;;32.50;44.35;99930.55;1661199;86;21421;-56
2021/08/02 09:38:06;;;;;;;11.15;6.85;;;;;;;32.67;44.29;99941.91;1668097;83;21317;-57
2021/08/02 09:41:11;;;;;;;11.85;7.12;;;;;;;32.82;43.80;99931.51;1666020;85;21227;-59
2021/08/02 09:44:30;;;;;;;10.95;7.37;;;;;;;33.01;43.64;99924.09;1657088;85;21215;-58
2021/08/02 09:47:39;;;;;;;13.60;7.08;;;;;;;33.15;44.32;99924.75;1660291;84;21229;-61
2021/08/02 09:50:45;;;;;;;14.65;7.35;;;;;;;33.32;44.47;99928.97;1670883;84;21788;-58
2021/08/02 09:54:00;;;;;;;13.25;7.30;;;;;;;33.38;43.02;99912.84;1682112;84;21200;-56
2021/08/02 09:57:07;;;;;;;10.03;6.67;;;;;;;33.44;42.88;99922.63;1668465;84;21749;-59
2021/08/02 10:00:19;;;;;;;11.15;7.28;;;;;;;33.54;41.48;99916.61;1662643;84;21212;-58
2021/08/02 10:03:26;;;;;;;8.10;5.80;;;;;;;33.64;41.19;99907.13;1672116;84;21231;-59
2021/08/02 10:06:33;;;;;;;8.80;6.40;;;;;;;33.76;40.38;99911.48;1660847;84;21370;-59
2021/08/02 10:09:40;;;;;;;10.55;6.33;;;;;;;33.83;39.89;99908.97;1680080;83;21243;-60
2021/08/02 10:12:55;;;;;;;13.03;6.28;;;;;;;33.94;39.27;99909.44;1681089;84;21798;-59
2021/08/02 10:16:07;;;;;;;7.58;6.17;;;;;;;33.98;39.57;99909.02;1674725;84;21217;-59
2021/08/02 10:19:20;;;;;;;13.15;6.60;;;;;;;33.97;40.09;99900.23;1677470;85;21221;-58
2021/08/02 10:22:25;;;;;;;10.95;6.28;;;;;;;34.09;39.85;99907.45;1664191;83;22041;-58
2021/08/02 10:25:45;;;;;;;8.50;6.30;;;;;;;34.31;40.21;99892.36;1660192;83;21214;-61
2021/08/02 10:29:05;;;;;;;10.68;6.40;;;;;;;34.47;40.35;99898.30;1681921;84;21797;-60
2021/08/02 10:32:11;;;;;;;11.22;5.80;;;;;;;34.59;40.13;99905.47;1657626;84;21224;-59
2021/08/02 10:35:20;;;;;;;10.32;6.53;;;;;;;34.63;38.59;99908.69;1638666;86;21258;-56
2021/08/02 10:38:26;;;;;;;11.28;6.87;;;;;;;34.55;38.73;99905.93;1606726;89;21259;-56
2021/08/02 10:41:40;;;;;;;11.60;6.03;;;;;;;34.39;39.01;99909.14;1600477;89;21301;-56
2021/08/02 10:45:02;;;;;;;9.35;6.62;;;;;;;34.39;38.74;99911.98;1648330;87;21294;-57
2021/08/02 10:48:11;;;;;;;13.00;6.33;;;;;;;34.41;39.18;99906.79;1639548;83;21418;-56
2021/08/02 10:51:25;;;;;;;9.68;6.55;;;;;;;34.49;38.25;99896.76;1687978;83;21226;-59
2021/08/02 10:54:45;;;;;;;15.13;7.12;;;;;;;34.50;38.32;99897.02;1686550;84;21379;-57
2021/08/02 10:57:50;;;;;;;11.88;6.12;;;;;;;34.56;38.86;99897.62;1685975;85;21891;-58
2021/08/02 11:01:08;;;;;;;11.48;6.37;;;;;;;34.66;38.88;99893.77;1662800;85;21293;-58
2021/08/02 11:04:21;;;;;;;12.20;7.08;;;;;;;34.66;38.87;99895.20;1599135;89;21598;-57
2021/08/02 11:07:26;;;;;;;14.78;5.95;;;;;;;34.64;39.05;99893.89;1591513;89;21399;-56
2021/08/02 11:10:32;;;;;;;13.08;6.58;;;;;;;34.69;38.97;99889.42;1604317;89;21266;-57
2021/08/02 11:13:39;;;;;;;16.12;6.80;;;;;;;34.91;38.76;99883.98;1641483;86;21208;-56
2021/08/02 11:16:55;;;;;;;7.67;6.30;;;;;;;35.04;38.42;99883.70;1639001;86;21812;-57
2021/08/02 11:20:11;;;;;;;8.45;5.50;;;;;;;35.13;37.96;99880.74;1636688;86;21622;-56
2021/08/02 11:23:20;;;;;;;12.73;6.22;;;;;;;35.18;37.26;99871.41;1673979;83;21245;-57
2021/08/02 11:26:29;;;;;;;10.75;6.35;;;;;;;35.25;37.36;99861.69;1681422;84;21228;-57
2021/08/02 11:29:36;;;;;;;12.28;6.40;;;;;;;35.42;37.61;99862.97;1672151;83;21684;-56
2021/08/02 11:32:42;;;;;;;24.37;7.67;;;;;;;35.49;37.27;99851.81;1648615;84;21780;-57
2021/08/02 11:35:48;;;;;;;10.70;7.12;;;;;;;35.51;36.61;99848.02;1633596;85;21235;-59
2021/08/02 11:38:57;;;;;;;14.13;7.03;;;;;;;35.60;36.38;99823.72;1669599;85;21290;-57
2021/08/02 11:42:16;;;;;;;15.65;7.10;;;;;;;35.72;36.34;99823.13;1677393;85;21751;-55
2021/08/02 11:45:20;;;;;;;10.00;6.92;;;;;;;35.78;35.60;99810.30;1724710;82;22082;-58
2021/08/02 11:48:30;;;;;;;10.80;6.60;;;;;;;35.83;35.89;99807.80;1679552;82;21196;-57
2021/08/02 11:51:35;;;;;;;14.43;6.42;;;;;;;35.79;35.27;99805.44;1702531;82;21212;-57
2021/08/02 11:54:46;;;;;;;13.48;6.20;;;;;;;35.75;34.81;99792.49;1713243;83;21753;-58
2021/08/02 11:57:52;;;;;;;10.55;6.58;;;;;;;35.66;34.77;99788.91;1715376;82;21248;-59
2021/08/02 12:01:09;;;;;;;8.20;5.62;;;;;;;35.58;34.85;99773.38;1686602;82;21176;-56
2021/08/02 12:04:17;;;;;;;12.05;6.90;;;;;;;35.50;35.05;99773.75;1724155;82;21340;-57
2021/08/02 12:07:31;;;;;;;10.58;6.40;;;;;;;35.41;34.39;99765.08;1715439;83;21335;-59
2021/08/02 12:10:38;;;;;;;8.40;6.37;;;;;;;35.36;34.35;99753.30;1677758;85;21225;-56
2021/08/02 12:13:50;;;;;;;13.03;6.83;;;;;;;35.48;34.63;99757.59;1699502;83;21221;-58
2021/08/02 12:16:56;;;;;;;12.75;6.47;;;;;;;35.64;34.13;99745.73;1718382;81;21807;-56
2021/08/02 12:20:06;;;;;;;17.27;6.75;;;;;;;35.83;34.75;99746.53;1696589;83;21411;-58
2021/08/02 12:23:15;;;;;;;11.38;5.87;;;;;;;35.94;33.68;99733.48;1696339;82;21521;-58
2021/08/02 12:26:27;;;;;;;15.40;6.10;;;;;;;35.94;32.90;99744.88;1704846;84;21251;-58
2021/08/02 12:29:34;;;;;;;16.12;6.47;;;;;;;35.85;33.45;99745.00;1700006;84;21209;-58
2021/08/02 12:32:52;;;;;;;13.57;6.33;;;;;;;35.53;33.58;99740.28;1707574;82;21374;-59
2021/08/02 12:35:59;;;;;;;10.65;6.87;;;;;;;35.53;33.58;99740.28;1708026;84;21872;-57
2021/08/02 12:39:05;;;;;;;13.62;6.60;;;;;;;35.37;33.86;99754.98;1706975;84;21663;-58
2021/08/02 12:42:13;;;;;;;13.55;6.22;;;;;;;35.22;34.23;99767.64;1706608;82;21205;-57
2021/08/02 12:45:22;;;;;;;13.72;6.47;;;;;;;35.07;34.62;99756.34;1691535;85;21802;-58
2021/08/02 12:48:30;;;;;;;13.70;6.92;;;;;;;34.97;34.40;99761.05;1691935;85;21722;-57
2021/08/02 12:51:39;;;;;;;10.90;5.80;;;;;;;34.88;34.76;99765.14;1649339;87;21390;-57
2021/08/02 12:54:48;;;;;;;10.95;5.72;;;;;;;34.73;33.95;99768.06;1666278;84;21250;-57
2021/08/02 12:57:58;;;;;;;13.18;6.65;;;;;;;34.60;34.14;99766.38;1665937;85;21396;-57
2021/08/02 13:01:08;;;;;;;14.40;6.87;;;;;;;34.46;34.58;99764.39;1718805;82;21221;-58
2021/08/02 13:04:18;;;;;;;14.85;7.15;;;;;;;34.29;35.11;99758.84;1640875;86;21300;-58
2021/08/02 13:07:23;;;;;;;10.13;6.03;;;;;;;34.12;35.63;99761.83;1707318;82;21185;-57
2021/08/02 13:10:31;;;;;;;18.73;6.58;;;;;;;33.95;35.13;99768.45;1696693;82;21794;-59
2021/08/02 13:13:38;;;;;;;15.45;6.45;;;;;;;33.78;35.28;99754.93;1732873;82;21167;-59
2021/08/02 13:16:44;;;;;;;9.35;6.22;;;;;;;33.63;35.39;99745.61;1750001;81;21764;-59
2021/08/02 13:19:53;;;;;;;11.40;6.15;;;;;;;33.51;35.81;99741.27;1741374;81;21690;-58
2021/08/02 13:23:05;;;;;;;10.00;6.25;;;;;;;33.37;35.82;99750.81;1706393;81;21212;-57
2021/08/02 13:29:36;;;;;;;10.95;5.75;;;;;;;33.15;36.24;99741.15;1729447;82;21327;-56
2021/08/02 13:32:46;;;;;;;17.75;7.85;;;;;;;33.03;36.38;99751.55;1741868;81;21209;-57
2021/08/02 13:35:53;;;;;;;23.32;6.47;;;;;;;32.92;37.29;99786.52;1736672;81;21205;-59
2021/08/02 13:39:03;;;;;;;23.50;5.60;;;;;;;32.50;38.62;99807.82;1733622;81;21197;-59
2021/08/02 13:42:14;;;;;;;19.07;5.40;;;;;;;31.95;39.73;99819.74;1668010;83;21213;-60
2021/08/02 13:45:20;;;;;;;16.75;4.78;;;;;;;31.45;40.61;99831.71;1667512;84;21212;-57
2021/08/02 13:48:26;;;;;;;28.65;4.62;;;;;;;30.85;41.77;99822.03;1660603;84;21767;-60
2021/08/02 13:51:35;;;;;;;17.17;5.53;;;;;;;30.37;43.13;99830.28;1651988;84;22174;-57
2021/08/02 13:54:42;;;;;;;18.77;4.62;;;;;;;29.96;44.40;99828.95;1665641;85;21903;-55
2021/08/02 13:57:47;;;;;;;20.77;4.05;;;;;;;29.64;45.25;99834.73;1695932;83;21726;-59
2021/08/02 14:00:55;;;;;;;18.35;4.50;;;;;;;29.45;45.95;99831.75;1707887;82;21770;-57
2021/08/02 14:04:03;;;;;;;11.60;4.62;;;;;;;29.29;46.51;99827.55;1673317;85;21218;-59
2021/08/02 14:07:11;;;;;;;19.37;3.95;;;;;;;29.10;46.92;99842.56;1728610;82;21318;-60
2021/08/02 14:10:19;;;;;;;14.50;4.33;;;;;;;28.95;47.39;99835.78;1726443;82;21446;-59
2021/08/02 14:13:25;;;;;;;14.73;5.05;;;;;;;28.88;47.74;99845.19;1727769;82;21805;-61
2021/08/02 14:16:40;;;;;;;19.98;4.70;;;;;;;28.82;48.03;99836.56;1655495;85;21221;-60
2021/08/02 14:19:52;;;;;;;17.15;5.47;;;;;;;28.77;48.19;99835.80;1657428;86;21189;-60
2021/08/02 14:23:00;;;;;;;10.45;5.30;;;;;;;28.75;48.48;99830.48;1642551;86;21605;-60
2021/08/02 14:26:10;;;;;;;11.75;4.62;;;;;;;28.72;48.81;99835.89;1656686;84;21504;-61
2021/08/02 14:29:16;;;;;;;15.70;4.70;;;;;;;28.68;48.99;99824.98;1639823;87;21207;-61
2021/08/02 14:32:22;;;;;;;15.32;5.45;;;;;;;28.63;49.67;99818.87;1639209;87;22014;-61